Time;durP1;ratioP1;P1;durP2;ratioP2;P2;SDS_P1;SDS_P2;PMS_P1;PMS_P2;Temp;Humidity;BMP_temperature;BMP_pressure;BME280_temperature;BME280_humidity;BME280_pressure;Samples;Min_cycle;Max_cycle;Signal;HPM_P1;HPM_P2
2021/01/09 00:01:55;;;;;;;26.02;14.80;;;-1.20;99.90;;;;;;4162741;28;20043;-79
2021/01/09 00:03:56;;;;;;;29.38;15.85;;;-1.20;99.90;;;;;;4179813;28;20017;-78
2021/01/09 00:05:56;;;;;;;29.35;15.60;;;-1.20;99.90;;;;;;4180417;28;20078;-80
2021/01/09 00:07:57;;;;;;;33.85;16.30;;;-1.30;99.90;;;;;;4179762;28;20032;-80
2021/01/09 00:09:58;;;;;;;31.10;15.70;;;-1.30;99.90;;;;;;4163150;28;20038;-80
2021/01/09 00:11:59;;;;;;;27.73;13.63;;;-1.30;99.90;;;;;;4162551;28;20068;-79
2021/01/09 00:13:59;;;;;;;33.15;14.50;;;-1.20;99.90;;;;;;4180659;28;20546;-80
2021/01/09 00:16:00;;;;;;;23.27;13.57;;;-1.20;99.90;;;;;;4164515;28;20500;-80
2021/01/09 00:18:01;;;;;;;29.92;14.38;;;-1.20;99.90;;;;;;4163992;28;20041;-78
2021/01/09 00:20:08;;;;;;;23.35;12.63;;;-1.10;99.90;;;;;;4181942;28;20052;-79
2021/01/09 00:22:09;;;;;;;20.50;11.82;;;-1.00;99.90;;;;;;4181962;28;20025;-79
2021/01/09 00:24:10;;;;;;;24.40;13.20;;;-0.90;99.90;;;;;;4181773;28;20021;-80
2021/01/09 00:26:11;;;;;;;27.13;13.82;;;-0.90;99.90;;;;;;4163913;28;20025;-80
2021/01/09 00:28:12;;;;;;;31.90;14.43;;;-0.90;99.90;;;;;;4164386;28;20037;-81
2021/01/09 00:30:13;;;;;;;34.55;15.88;;;-0.90;99.90;;;;;;4181683;28;20078;-81
2021/01/09 00:32:14;;;;;;;35.13;15.82;;;-1.00;99.90;;;;;;4181460;28;20053;-81
2021/01/09 00:34:15;;;;;;;38.92;15.02;;;-1.10;99.90;;;;;;4181947;28;20396;-81
2021/01/09 00:36:16;;;;;;;26.88;14.40;;;-1.10;99.90;;;;;;4181380;28;20033;-81
2021/01/09 00:38:16;;;;;;;24.10;13.27;;;-1.20;99.90;;;;;;4181887;28;20029;-80
2021/01/09 00:40:17;;;;;;;31.63;15.48;;;-1.20;99.90;;;;;;4180612;28;20079;-80
2021/01/09 00:42:17;;;;;;;27.95;15.18;;;-1.20;99.90;;;;;;4179862;28;20037;-80
2021/01/09 00:44:18;;;;;;;34.60;15.52;;;-1.30;99.90;;;;;;4180270;28;20017;-80
2021/01/09 00:46:19;;;;;;;30.30;14.68;;;-1.30;99.90;;;;;;4180426;28;20025;-81
2021/01/09 00:48:20;;;;;;;32.10;15.52;;;-1.30;99.90;;;;;;4162237;28;20034;-80
2021/01/09 00:50:20;;;;;;;24.95;13.05;;;-1.30;99.90;;;;;;4162181;28;20042;-79
2021/01/09 00:52:21;;;;;;;29.83;13.80;;;-1.30;99.90;;;;;;4179522;28;20433;-81
2021/01/09 00:54:21;;;;;;;34.38;15.52;;;-1.30;99.90;;;;;;4179948;28;20037;-79
2021/01/09 00:56:22;;;;;;;23.55;13.90;;;-1.30;99.90;;;;;;4179767;28;20033;-80
2021/01/09 00:58:23;;;;;;;27.77;15.02;;;-1.20;99.90;;;;;;4180170;28;20453;-79
2021/01/09 01:00:23;;;;;;;28.30;15.18;;;-1.20;99.90;;;;;;4180070;28;20642;-79
2021/01/09 01:02:24;;;;;;;44.38;18.65;;;-1.20;99.90;;;;;;4162349;28;20033;-79
2021/01/09 01:04:24;;;;;;;46.20;18.98;;;-1.30;99.90;;;;;;4169436;28;20051;-80
2021/01/09 01:06:26;;;;;;;40.22;18.33;;;-1.30;99.90;;;;;;4181038;28;20029;-79
2021/01/09 01:08:27;;;;;;;43.97;17.35;;;-1.40;99.90;;;;;;4163380;28;20456;-79
2021/01/09 01:10:27;;;;;;;41.05;18.17;;;-1.40;99.90;;;;;;4181432;28;20033;-80
2021/01/09 01:12:28;;;;;;;45.60;20.02;;;-1.40;99.90;;;;;;4181605;28;20495;-79
2021/01/09 01:14:29;;;;;;;57.78;20.88;;;-1.40;99.90;;;;;;4163427;28;20037;-80
2021/01/09 01:16:30;;;;;;;46.33;19.27;;;-1.40;99.90;;;;;;4180953;28;20029;-80
2021/01/09 01:18:30;;;;;;;38.28;18.05;;;-1.50;99.90;;;;;;4181150;28;20082;-80
2021/01/09 01:20:31;;;;;;;33.28;14.32;;;-1.50;99.90;;;;;;4180968;28;20464;-80
2021/01/09 01:22:31;;;;;;;28.70;12.52;;;-1.50;99.90;;;;;;4159255;28;20112;-80
2021/01/09 01:24:32;;;;;;;27.13;13.65;;;-1.40;99.90;;;;;;4181024;28;20057;-80
2021/01/09 01:26:33;;;;;;;26.17;14.40;;;-1.40;99.90;;;;;;4180495;28;20555;-80
2021/01/09 01:28:33;;;;;;;33.53;15.32;;;-1.40;99.90;;;;;;4163053;28;20028;-80
2021/01/09 01:30:34;;;;;;;34.85;16.73;;;-1.40;99.90;;;;;;4180717;28;20047;-80
2021/01/09 01:32:35;;;;;;;39.58;16.35;;;-1.40;99.90;;;;;;4180726;28;20031;-80
2021/01/09 01:34:35;;;;;;;31.30;15.23;;;-1.40;99.90;;;;;;4162835;28;20129;-80
2021/01/09 01:36:36;;;;;;;33.58;16.80;;;-1.30;99.90;;;;;;4172511;28;20101;-81
2021/01/09 01:38:37;;;;;;;34.10;14.85;;;-1.30;99.90;;;;;;4162887;28;20041;-79
2021/01/09 01:40:38;;;;;;;31.90;13.25;;;-1.20;99.90;;;;;;4162652;28;20030;-81
2021/01/09 01:42:38;;;;;;;26.42;13.02;;;-1.20;99.90;;;;;;4180447;28;20041;-80
2021/01/09 01:44:39;;;;;;;22.60;11.98;;;-1.10;99.90;;;;;;4163013;28;20030;-80
2021/01/09 01:46:40;;;;;;;26.02;11.75;;;-1.20;99.90;;;;;;4180774;28;20032;-80
2021/01/09 01:48:41;;;;;;;26.95;12.65;;;-1.30;99.90;;;;;;4180675;28;20095;-80
2021/01/09 01:50:42;;;;;;;22.23;12.07;;;-1.30;99.90;;;;;;4180666;28;20021;-80
2021/01/09 01:52:43;;;;;;;23.35;12.13;;;-1.20;99.90;;;;;;4154337;28;20120;-79
2021/01/09 01:54:44;;;;;;;20.88;10.82;;;-1.20;99.90;;;;;;4144345;28;20026;-80
2021/01/09 01:56:48;;;;;;;20.73;11.38;;;-1.10;99.90;;;;;;4141612;28;20037;-79
2021/01/09 01:58:49;;;;;;;25.02;13.32;;;-1.20;99.90;;;;;;4147450;28;20030;-78
2021/01/09 02:00:50;;;;;;;17.67;11.57;;;-1.20;99.90;;;;;;4147484;28;20425;-79
2021/01/09 02:02:55;;;;;;;23.85;12.00;;;-1.10;99.90;;;;;;4146311;28;20034;-80
2021/01/09 02:05:01;;;;;;;18.73;10.43;;;-1.10;99.90;;;;;;4147322;28;20666;-80
2021/01/09 02:07:12;;;;;;;18.48;11.63;;;-1.10;99.90;;;;;;4146843;28;20014;-79
2021/01/09 02:09:20;;;;;;;23.23;11.57;;;-1.20;99.90;;;;;;4146210;28;20018;-80
2021/01/09 02:11:46;;;;;;;22.75;11.90;;;-1.20;99.90;;;;;;4146068;28;20030;-80
2021/01/09 02:13:52;;;;;;;22.75;11.35;;;-1.20;99.90;;;;;;4147692;28;20363;-79
2021/01/09 02:15:53;;;;;;;22.50;11.20;;;-1.20;99.90;;;;;;4147046;28;20037;-80
2021/01/09 02:17:55;;;;;;;22.08;11.02;;;-1.20;99.90;;;;;;4147351;28;20026;-80
2021/01/09 02:19:59;;;;;;;22.77;12.52;;;-1.20;99.90;;;;;;4147438;28;20026;-80
2021/01/09 02:22:00;;;;;;;18.40;11.63;;;-1.20;99.90;;;;;;4145993;28;20116;-79
2021/01/09 02:24:00;;;;;;;22.52;11.98;;;-1.20;99.90;;;;;;4147127;28;20029;-80
2021/01/09 02:26:01;;;;;;;26.77;11.10;;;-1.10;99.90;;;;;;4147274;28;20042;-80
2021/01/09 02:28:02;;;;;;;20.55;11.48;;;-1.10;99.90;;;;;;4144724;28;20042;-78
2021/01/09 02:30:09;;;;;;;18.92;10.55;;;-1.10;99.90;;;;;;4145548;28;20474;-79
2021/01/09 02:32:14;;;;;;;24.17;11.63;;;-1.20;99.90;;;;;;4144280;28;20369;-79
2021/01/09 02:34:16;;;;;;;19.85;10.32;;;-1.30;99.90;;;;;;4144079;28;20034;-80
2021/01/09 02:36:18;;;;;;;14.95;10.52;;;-1.30;99.90;;;;;;4144120;28;20026;-79
2021/01/09 02:38:18;;;;;;;23.13;12.02;;;-1.40;99.90;;;;;;4145245;28;20117;-80
2021/01/09 02:40:19;;;;;;;21.45;11.68;;;-1.40;99.90;;;;;;4144201;28;20448;-80
2021/01/09 02:42:20;;;;;;;19.67;12.52;;;-1.50;99.90;;;;;;4146290;28;20478;-81
2021/01/09 02:44:21;;;;;;;22.90;12.43;;;-1.60;99.90;;;;;;4145398;28;20042;-80
2021/01/09 02:46:22;;;;;;;21.40;12.57;;;-1.70;99.90;;;;;;4145697;28;20097;-80
2021/01/09 02:48:23;;;;;;;19.48;10.20;;;-1.80;99.90;;;;;;4145268;28;20052;-80
2021/01/09 02:50:23;;;;;;;18.25;12.00;;;-1.80;99.90;;;;;;4145613;28;20038;-80
2021/01/09 02:52:24;;;;;;;21.88;11.25;;;-1.80;99.90;;;;;;4156305;28;20041;-80
2021/01/09 02:54:24;;;;;;;19.38;10.50;;;-1.80;99.90;;;;;;4160829;28;20044;-80
2021/01/09 02:56:25;;;;;;;20.38;11.07;;;-1.80;99.90;;;;;;4178364;28;20037;-79
2021/01/09 02:58:25;;;;;;;23.58;12.27;;;-1.80;99.90;;;;;;4178086;28;20036;-79
2021/01/09 03:00:26;;;;;;;20.67;10.98;;;-1.80;99.90;;;;;;4160545;28;20045;-80
2021/01/09 03:02:27;;;;;;;17.27;10.10;;;-1.80;99.90;;;;;;4161732;28;20591;-80
2021/01/09 03:04:27;;;;;;;23.67;11.68;;;-1.80;99.90;;;;;;4161486;28;20047;-80
2021/01/09 03:06:28;;;;;;;21.00;10.93;;;-1.90;99.90;;;;;;4179271;28;20033;-80
2021/01/09 03:08:28;;;;;;;17.77;10.48;;;-2.10;99.90;;;;;;4179484;28;20423;-79
2021/01/09 03:10:29;;;;;;;18.45;10.98;;;-2.20;99.90;;;;;;4161714;28;20033;-80
2021/01/09 03:12:30;;;;;;;18.52;10.93;;;-2.20;99.90;;;;;;4161765;28;20043;-80
2021/01/09 03:14:30;;;;;;;19.88;10.95;;;-2.30;99.90;;;;;;4179366;28;20029;-79
2021/01/09 03:16:31;;;;;;;19.15;10.82;;;-2.30;99.90;;;;;;4179559;28;20036;-80
2021/01/09 03:18:31;;;;;;;19.98;11.38;;;-2.30;99.90;;;;;;4179207;28;20507;-80
2021/01/09 03:20:32;;;;;;;19.88;10.57;;;-2.40;99.90;;;;;;4161760;28;20440;-79
2021/01/09 03:22:33;;;;;;;19.60;10.65;;;-2.40;99.90;;;;;;4174069;28;20044;-80
2021/01/09 03:24:33;;;;;;;19.10;12.27;;;-2.30;99.90;;;;;;4161345;28;20511;-80
2021/01/09 03:26:34;;;;;;;20.48;10.23;;;-2.30;99.90;;;;;;4179173;28;20037;-80
2021/01/09 03:28:34;;;;;;;17.88;11.77;;;-2.30;99.90;;;;;;4182156;28;20440;-79
2021/01/09 03:30:35;;;;;;;16.00;9.95;;;-2.30;99.90;;;;;;4182610;28;20033;-79
2021/01/09 03:32:36;;;;;;;20.38;10.50;;;-2.30;99.90;;;;;;4182896;28;20480;-79
2021/01/09 03:34:36;;;;;;;21.02;12.40;;;-2.40;99.90;;;;;;4182793;28;20040;-79
2021/01/09 03:36:37;;;;;;;16.02;9.77;;;-2.50;99.90;;;;;;4182353;28;20431;-80
2021/01/09 03:38:38;;;;;;;21.75;11.75;;;-2.50;99.90;;;;;;4182829;28;20021;-80
2021/01/09 03:40:38;;;;;;;18.25;10.05;;;-2.50;99.90;;;;;;4164856;28;20534;-80
2021/01/09 03:42:39;;;;;;;21.58;12.02;;;-2.50;99.90;;;;;;4182472;28;20033;-81
2021/01/09 03:44:40;;;;;;;15.68;10.10;;;-2.60;99.90;;;;;;4182371;28;20494;-80
2021/01/09 03:46:40;;;;;;;17.75;10.82;;;-2.60;99.90;;;;;;4182291;28;20029;-81
2021/01/09 03:48:41;;;;;;;19.52;10.23;;;-2.60;99.90;;;;;;4164652;28;20452;-80
2021/01/09 03:50:41;;;;;;;22.13;11.30;;;-2.60;99.90;;;;;;4165069;28;20037;-81
2021/01/09 03:52:42;;;;;;;21.58;11.30;;;-2.60;99.90;;;;;;4182253;28;20404;-80
2021/01/09 03:54:42;;;;;;;16.30;10.25;;;-2.60;99.90;;;;;;4154385;28;20413;-81
2021/01/09 03:56:43;;;;;;;16.95;9.63;;;-2.60;99.90;;;;;;4182244;28;20040;-81
2021/01/09 03:58:44;;;;;;;18.10;9.63;;;-2.60;99.90;;;;;;4182202;28;20025;-81
2021/01/09 04:00:44;;;;;;;18.45;10.50;;;-2.60;99.90;;;;;;4182204;28;20531;-80
2021/01/09 04:02:45;;;;;;;15.65;10.85;;;-2.60;99.90;;;;;;4164401;28;20366;-80
2021/01/09 04:04:46;;;;;;;18.85;10.65;;;-2.60;99.90;;;;;;4164679;28;20026;-80
2021/01/09 04:06:46;;;;;;;17.35;10.10;;;-2.70;99.90;;;;;;4160350;28;20029;-80
2021/01/09 04:08:47;;;;;;;23.02;11.20;;;-2.80;99.90;;;;;;4164164;28;20099;-80
2021/01/09 04:10:47;;;;;;;14.77;10.00;;;-2.90;99.90;;;;;;4181804;28;20033;-80
2021/01/09 04:12:48;;;;;;;15.80;10.07;;;-2.90;99.90;;;;;;4182255;28;20109;-79
2021/01/09 04:14:48;;;;;;;17.20;9.93;;;-3.00;99.90;;;;;;4156758;28;20040;-80
2021/01/09 04:16:49;;;;;;;15.98;10.70;;;-3.00;99.90;;;;;;4175634;28;20090;-80
2021/01/09 04:18:50;;;;;;;13.88;9.18;;;-3.00;99.90;;;;;;4151508;28;20026;-79
2021/01/09 04:20:50;;;;;;;14.98;9.48;;;-3.10;99.90;;;;;;4181286;28;20033;-81
2021/01/09 04:22:51;;;;;;;17.58;10.35;;;-3.10;99.90;;;;;;4181898;28;20033;-79
2021/01/09 04:24:52;;;;;;;17.77;9.60;;;-3.20;99.90;;;;;;4181891;28;20017;-80
2021/01/09 04:26:57;;;;;;;14.27;9.45;;;-3.20;99.90;;;;;;4181929;28;20029;-80
2021/01/09 04:28:58;;;;;;;13.15;8.88;;;-3.20;99.90;;;;;;4181913;28;20468;-78
2021/01/09 04:30:58;;;;;;;18.13;11.13;;;-3.20;99.90;;;;;;4180682;28;20029;-80
2021/01/09 04:32:59;;;;;;;19.58;10.30;;;-3.20;99.90;;;;;;4180459;28;20376;-79
2021/01/09 04:34:59;;;;;;;15.57;8.45;;;-3.20;99.90;;;;;;4180330;28;20472;-79
2021/01/09 04:37:00;;;;;;;15.65;9.55;;;-3.20;99.90;;;;;;4180450;28;20033;-79
2021/01/09 04:39:00;;;;;;;16.17;10.50;;;-3.20;99.90;;;;;;4178833;28;20029;-80
2021/01/09 04:41:01;;;;;;;18.02;9.70;;;-3.20;99.90;;;;;;4179744;28;20028;-76
2021/01/09 04:43:02;;;;;;;15.00;9.40;;;-3.30;99.90;;;;;;4180138;28;20021;-79
2021/01/09 04:45:03;;;;;;;15.38;8.70;;;-3.30;99.90;;;;;;4162727;28;20034;-79
2021/01/09 04:47:07;;;;;;;13.35;9.07;;;-3.30;99.90;;;;;;4162194;28;20106;-79
2021/01/09 04:49:09;;;;;;;16.65;10.60;;;-3.30;99.90;;;;;;4180161;28;20510;-80
2021/01/09 04:51:10;;;;;;;15.20;9.48;;;-3.30;99.90;;;;;;4180075;28;20022;-80
2021/01/09 04:53:12;;;;;;;17.80;10.13;;;-3.30;99.90;;;;;;4179648;28;20442;-80
2021/01/09 04:55:13;;;;;;;13.60;9.00;;;-3.30;99.90;;;;;;4180032;28;20484;-80
2021/01/09 04:57:14;;;;;;;14.90;9.00;;;-3.40;99.90;;;;;;4179903;28;20039;-80
2021/01/09 04:59:16;;;;;;;13.60;9.40;;;-3.40;99.90;;;;;;4180068;28;20059;-79
2021/01/09 05:01:17;;;;;;;16.58;9.68;;;-3.40;99.90;;;;;;4180468;28;20048;-80
2021/01/09 05:03:18;;;;;;;16.75;9.20;;;-3.40;99.90;;;;;;4163211;28;20382;-79
2021/01/09 05:05:19;;;;;;;18.02;10.00;;;-3.40;99.90;;;;;;4163389;28;20032;-80
2021/01/09 05:07:19;;;;;;;19.92;8.80;;;-3.40;99.90;;;;;;4181299;28;20029;-79
2021/01/09 05:09:20;;;;;;;17.67;10.30;;;-3.40;99.90;;;;;;4181214;28;22882;-79
2021/01/09 05:11:21;;;;;;;13.07;9.32;;;-3.40;99.90;;;;;;4181152;28;20113;-79
2021/01/09 05:13:23;;;;;;;17.83;9.48;;;-3.40;99.90;;;;;;4163415;28;20075;-79
2021/01/09 05:15:33;;;;;;;17.85;9.75;;;-3.40;99.90;;;;;;4163449;28;20056;-79
2021/01/09 05:17:35;;;;;;;16.33;9.88;;;-3.40;99.90;;;;;;4180970;28;20033;-79
2021/01/09 05:19:36;;;;;;;15.80;9.20;;;-3.40;99.90;;;;;;4181323;28;20091;-79
2021/01/09 05:21:37;;;;;;;13.32;9.43;;;-3.40;99.90;;;;;;4163328;28;20033;-79
2021/01/09 05:23:50;;;;;;;16.20;9.80;;;-3.50;99.90;;;;;;4181050;28;20124;-80
2021/01/09 05:25:53;;;;;;;16.00;9.30;;;-3.40;99.90;;;;;;4178761;28;20510;-80
2021/01/09 05:27:55;;;;;;;15.15;9.13;;;-3.40;99.90;;;;;;4163342;28;20025;-80
2021/01/09 05:29:57;;;;;;;14.25;9.75;;;-3.40;99.90;;;;;;4180759;28;20056;-80
2021/01/09 05:31:57;;;;;;;17.30;9.70;;;-3.30;99.90;;;;;;4163097;28;20041;-79
2021/01/09 05:33:58;;;;;;;13.52;9.25;;;-3.30;99.90;;;;;;4180668;28;20473;-79
2021/01/09 05:35:59;;;;;;;20.98;9.38;;;-3.30;99.90;;;;;;4162803;28;20492;-80
2021/01/09 05:38:00;;;;;;;13.35;8.98;;;-3.30;99.90;;;;;;4172260;28;20029;-79
2021/01/09 05:40:03;;;;;;;18.20;8.60;;;-3.40;99.90;;;;;;4162705;28;20423;-80
2021/01/09 05:42:05;;;;;;;16.38;10.02;;;-3.50;99.90;;;;;;4162656;28;20084;-78
2021/01/09 05:44:07;;;;;;;19.25;9.73;;;-3.40;99.90;;;;;;4180443;28;20055;-78
2021/01/09 05:46:08;;;;;;;11.67;7.97;;;-3.40;99.90;;;;;;4157734;28;20037;-79
2021/01/09 05:48:09;;;;;;;12.60;8.95;;;-3.40;99.90;;;;;;4177606;28;20107;-79
2021/01/09 05:50:11;;;;;;;15.77;10.07;;;-3.50;99.90;;;;;;4178770;28;20052;-79
2021/01/09 05:52:12;;;;;;;18.97;9.00;;;-3.50;99.90;;;;;;4178780;28;20067;-79
2021/01/09 05:54:13;;;;;;;16.15;9.57;;;-3.60;99.90;;;;;;4179774;28;20120;-79
2021/01/09 05:56:18;;;;;;;16.33;8.57;;;-3.60;99.90;;;;;;4180439;28;20035;-79
2021/01/09 05:58:18;;;;;;;19.13;11.43;;;-3.60;99.90;;;;;;4179320;28;20051;-79
2021/01/09 06:00:23;;;;;;;15.50;10.50;;;-3.50;99.90;;;;;;4161066;28;20104;-80
2021/01/09 06:02:25;;;;;;;26.45;13.07;;;-3.30;99.90;;;;;;4161179;28;20029;-81
2021/01/09 06:04:33;;;;;;;19.70;13.13;;;-3.10;99.90;;;;;;4179539;28;20037;-80
2021/01/09 06:06:34;;;;;;;19.58;10.90;;;-3.00;99.90;;;;;;4162599;28;20068;-80
2021/01/09 06:08:41;;;;;;;21.30;12.90;;;-3.10;99.90;;;;;;4178927;28;20033;-80
2021/01/09 06:10:46;;;;;;;20.90;12.13;;;-3.00;99.90;;;;;;4160916;28;20042;-79
2021/01/09 06:13:01;;;;;;;26.83;16.42;;;-2.90;99.90;;;;;;4161248;28;20040;-79
2021/01/09 06:15:06;;;;;;;20.50;12.35;;;-3.00;99.90;;;;;;4161088;28;20037;-79
2021/01/09 06:17:07;;;;;;;23.30;13.65;;;-3.10;99.90;;;;;;4180249;28;20480;-79
2021/01/09 06:19:09;;;;;;;22.77;12.48;;;-3.20;99.90;;;;;;4179782;28;20059;-79
2021/01/09 06:21:10;;;;;;;18.33;12.40;;;-3.30;99.90;;;;;;4180057;28;20506;-79
2021/01/09 06:23:13;;;;;;;20.15;11.30;;;-3.40;99.90;;;;;;4162485;28;20029;-80
2021/01/09 06:25:14;;;;;;;25.08;12.82;;;-3.50;99.90;;;;;;4160930;28;20040;-80
2021/01/09 06:27:24;;;;;;;28.52;15.45;;;-3.40;99.90;;;;;;4161955;28;20033;-80
2021/01/09 06:29:26;;;;;;;20.95;14.07;;;-3.40;99.90;;;;;;4161738;28;20025;-79
2021/01/09 06:31:29;;;;;;;21.67;13.85;;;-3.40;99.90;;;;;;4169561;28;20032;-80
2021/01/09 06:33:32;;;;;;;22.73;11.63;;;-3.40;99.90;;;;;;4177961;28;20433;-79
2021/01/09 06:35:33;;;;;;;;;;;-3.40;99.90;;;;;;4161304;28;20101;-80
2021/01/09 06:37:35;;;;;;;18.92;11.40;;;-3.50;99.90;;;;;;4178071;28;19909;-80
2021/01/09 06:39:37;;;;;;;21.25;10.73;;;-3.60;99.90;;;;;;4178394;28;20079;-80
2021/01/09 06:41:39;;;;;;;29.38;13.05;;;-3.60;99.90;;;;;;4179075;28;20032;-80
2021/01/09 06:43:48;;;;;;;23.35;13.85;;;-3.60;99.90;;;;;;4179030;28;20025;-80
2021/01/09 06:45:49;;;;;;;21.55;13.07;;;-3.60;99.90;;;;;;4178780;28;20074;-80
2021/01/09 06:48:01;;;;;;;20.13;11.20;;;-3.70;99.90;;;;;;4161290;28;20061;-80
2021/01/09 06:50:24;;;;;;;20.40;12.02;;;-3.70;99.90;;;;;;4162038;28;20462;-80
2021/01/09 06:52:53;;;;;;;22.33;13.20;;;-3.70;99.90;;;;;;4179124;28;20446;-81
2021/01/09 06:54:54;;;;;;;21.60;11.65;;;-3.70;99.90;;;;;;4179298;28;20033;-81
2021/01/09 06:57:06;;;;;;;25.75;13.65;;;-3.70;99.90;;;;;;4179570;28;20032;-80
2021/01/09 06:59:07;;;;;;;22.20;13.32;;;-3.70;99.90;;;;;;4179423;28;20029;-79
2021/01/09 07:01:20;;;;;;;24.73;13.30;;;-3.70;99.90;;;;;;4178240;28;20120;-80
2021/01/09 07:03:23;;;;;;;21.80;13.23;;;-3.70;99.90;;;;;;4178773;28;20035;-79
2021/01/09 07:05:24;;;;;;;19.23;12.77;;;-3.70;99.90;;;;;;4179429;28;20040;-80
2021/01/09 07:07:37;;;;;;;20.60;12.05;;;-3.70;99.90;;;;;;4179310;28;20480;-79
2021/01/09 07:09:40;;;;;;;20.58;12.70;;;-3.80;99.90;;;;;;4178196;28;20033;-79
2021/01/09 07:11:45;;;;;;;22.70;13.23;;;-3.80;99.90;;;;;;4178514;28;20437;-79
2021/01/09 07:13:47;;;;;;;21.02;14.30;;;-3.80;99.90;;;;;;4161698;28;20092;-80
2021/01/09 07:15:48;;;;;;;25.23;14.02;;;-3.80;99.90;;;;;;4159898;28;20136;-80
2021/01/09 07:17:55;;;;;;;25.77;15.07;;;-3.70;99.90;;;;;;4157981;28;20024;-80
2021/01/09 07:19:58;;;;;;;27.05;15.40;;;-3.60;99.90;;;;;;4168890;28;20029;-80
2021/01/09 07:22:02;;;;;;;30.55;15.05;;;-3.60;99.90;;;;;;4166260;28;20021;-80
2021/01/09 07:24:05;;;;;;;24.45;14.77;;;-3.60;99.90;;;;;;4174263;28;20116;-80
2021/01/09 07:26:08;;;;;;;28.27;16.52;;;-3.60;99.90;;;;;;4173998;28;20025;-79
2021/01/09 07:28:10;;;;;;;20.35;13.15;;;-3.60;99.90;;;;;;4161329;28;20104;-80
2021/01/09 07:30:18;;;;;;;28.05;15.25;;;-3.60;99.90;;;;;;4167697;28;20044;-79
2021/01/09 07:32:35;;;;;;;24.10;13.95;;;-3.60;99.90;;;;;;4167745;28;20025;-80
2021/01/09 07:34:37;;;;;;;25.70;13.38;;;-3.70;99.90;;;;;;4168143;28;20025;-80
2021/01/09 07:36:39;;;;;;;28.85;15.75;;;-3.70;99.90;;;;;;4168008;28;20026;-80
2021/01/09 07:38:57;;;;;;;27.40;14.88;;;-3.70;99.90;;;;;;4167817;28;20048;-80
2021/01/09 07:41:02;;;;;;;26.35;13.95;;;-3.70;99.90;;;;;;4144677;28;20493;-80
2021/01/09 07:43:03;;;;;;;25.23;15.45;;;-3.70;99.90;;;;;;4166866;28;20028;-79
2021/01/09 07:45:09;;;;;;;26.30;15.25;;;-3.70;99.90;;;;;;4160265;28;20121;-79
2021/01/09 07:47:11;;;;;;;31.02;15.48;;;-3.70;99.90;;;;;;4145175;28;20037;-80
2021/01/09 07:49:34;;;;;;;27.58;14.85;;;-3.60;99.90;;;;;;4145123;28;20018;-80
2021/01/09 07:51:52;;;;;;;24.98;14.43;;;-3.60;99.90;;;;;;4169419;28;20028;-80
2021/01/09 07:53:52;;;;;;;23.20;14.13;;;-3.70;99.90;;;;;;4171428;28;20080;-81
2021/01/09 07:55:54;;;;;;;23.35;14.15;;;-3.70;99.90;;;;;;4162865;28;20032;-80
2021/01/09 07:57:54;;;;;;;21.25;12.63;;;-3.70;99.90;;;;;;4163026;28;20391;-80
2021/01/09 07:59:56;;;;;;;23.20;14.32;;;-3.70;99.90;;;;;;4164934;28;20104;-80
2021/01/09 08:01:57;;;;;;;26.92;15.50;;;-3.80;99.90;;;;;;4161956;28;20037;-79
2021/01/09 08:03:59;;;;;;;24.08;14.07;;;-3.80;99.90;;;;;;4146722;28;20026;-81
2021/01/09 08:06:00;;;;;;;26.88;15.73;;;-3.80;99.90;;;;;;4133646;28;20041;-80
2021/01/09 08:08:02;;;;;;;24.88;15.43;;;-3.70;99.90;;;;;;4163505;28;20033;-81
2021/01/09 08:10:14;;;;;;;26.02;15.18;;;-3.70;99.90;;;;;;4148871;28;20037;-79
2021/01/09 08:12:25;;;;;;;25.55;14.93;;;-3.70;99.90;;;;;;4165089;28;20029;-80
2021/01/09 08:14:26;;;;;;;27.67;16.35;;;-3.60;99.90;;;;;;4171413;28;20044;-79
2021/01/09 08:16:26;;;;;;;27.58;15.18;;;-3.50;99.90;;;;;;4170671;28;20025;-80
2021/01/09 08:18:27;;;;;;;27.20;16.08;;;-3.30;99.90;;;;;;4169895;28;20029;-81
2021/01/09 08:20:27;;;;;;;32.30;16.08;;;-3.30;99.90;;;;;;4149195;28;20036;-79
2021/01/09 08:22:29;;;;;;;24.70;15.95;;;-3.20;99.90;;;;;;4166790;28;20037;-80
2021/01/09 08:24:29;;;;;;;30.85;16.40;;;-3.10;99.90;;;;;;4165693;28;20112;-80
2021/01/09 08:26:32;;;;;;;28.52;17.52;;;-3.10;99.90;;;;;;4171911;28;20051;-79
2021/01/09 08:28:33;;;;;;;29.08;17.45;;;-3.00;99.90;;;;;;4157597;28;20034;-81
2021/01/09 08:30:38;;;;;;;29.35;16.33;;;-2.90;99.90;;;;;;4167589;28;20044;-79
2021/01/09 08:32:39;;;;;;;33.58;16.77;;;-2.90;99.90;;;;;;4148632;28;20120;-80
2021/01/09 08:34:47;;;;;;;32.70;18.98;;;-2.90;99.90;;;;;;4153884;28;20026;-81
2021/01/09 08:36:58;;;;;;;31.08;20.13;;;-2.80;99.90;;;;;;4169524;28;20383;-81
2021/01/09 08:39:06;;;;;;;33.53;17.83;;;-2.70;99.90;;;;;;4153601;28;20628;-81
2021/01/09 08:41:07;;;;;;;29.42;19.75;;;-2.70;99.90;;;;;;4171133;28;20025;-80
2021/01/09 08:43:13;;;;;;;33.83;18.13;;;-2.70;99.90;;;;;;4165896;28;20031;-80
2021/01/09 08:45:14;;;;;;;32.90;17.55;;;-2.60;99.90;;;;;;4147609;28;20030;-81
2021/01/09 08:47:16;;;;;;;30.52;17.50;;;-2.60;99.90;;;;;;4149121;28;20116;-80
2021/01/09 08:49:27;;;;;;;25.55;15.50;;;-2.50;99.90;;;;;;4148338;28;20393;-80
2021/01/09 08:51:29;;;;;;;33.10;17.67;;;-2.50;99.90;;;;;;4150060;28;20079;-81
2021/01/09 08:53:41;;;;;;;24.87;14.37;;;-2.40;99.90;;;;;;4168346;28;20045;-80
2021/01/09 08:55:42;;;;;;;31.55;16.83;;;-2.30;99.90;;;;;;4165403;28;20025;-80
2021/01/09 08:57:44;;;;;;;33.67;18.10;;;-2.10;99.90;;;;;;4165140;28;20026;-79
2021/01/09 08:59:45;;;;;;;40.58;18.30;;;-2.00;99.90;;;;;;4170533;28;20021;-80
2021/01/09 09:01:48;;;;;;;34.70;20.88;;;-1.80;99.90;;;;;;4162592;28;20025;-81
2021/01/09 09:03:49;;;;;;;37.03;21.30;;;-1.60;99.90;;;;;;4181035;28;20159;-80
2021/01/09 09:05:51;;;;;;;40.88;21.60;;;-1.50;99.90;;;;;;4163044;28;20036;-78
2021/01/09 09:07:55;;;;;;;41.88;22.15;;;-1.40;99.90;;;;;;4179572;28;20029;-80
2021/01/09 09:10:01;;;;;;;47.05;27.17;;;-1.40;99.90;;;;;;4177786;28;20392;-78
2021/01/09 09:12:02;;;;;;;42.95;24.55;;;-1.20;99.90;;;;;;4158776;28;20033;-77
2021/01/09 09:14:08;;;;;;;47.35;25.80;;;-1.00;99.90;;;;;;4159872;28;20033;-78
2021/01/09 09:16:16;;;;;;;57.92;29.23;;;-0.90;99.90;;;;;;4180753;28;20048;-79
2021/01/09 09:18:18;;;;;;;63.45;32.83;;;-0.70;99.90;;;;;;4162494;28;20022;-79
2021/01/09 09:20:22;;;;;;;65.60;33.85;;;-0.50;99.90;;;;;;4180763;28;20025;-80
2021/01/09 09:22:30;;;;;;;64.70;33.55;;;-0.40;99.90;;;;;;4180742;28;20032;-77
2021/01/09 09:24:44;;;;;;;68.05;35.42;;;-0.30;99.90;;;;;;4179523;28;20048;-80
2021/01/09 09:26:45;;;;;;;68.20;37.17;;;-0.20;99.90;;;;;;4160885;28;20037;-78
2021/01/09 09:28:53;;;;;;;73.43;38.72;;;-0.20;99.90;;;;;;4178171;28;20031;-78
2021/01/09 09:30:54;;;;;;;76.50;39.30;;;-0.20;99.90;;;;;;4178975;28;20115;-79
2021/01/09 09:32:54;;;;;;;85.72;42.65;;;-0.10;99.90;;;;;;4160573;28;20037;-79
2021/01/09 09:34:55;;;;;;;87.35;43.08;;;-0.10;99.90;;;;;;4177439;28;20025;-78
2021/01/09 09:36:59;;;;;;;85.35;44.53;;;0.00;99.90;;;;;;4159650;28;20037;-79
2021/01/09 09:39:11;;;;;;;83.97;38.22;;;0.00;99.90;;;;;;4178191;28;20033;-78
2021/01/09 09:41:12;;;;;;;80.20;39.72;;;0.00;99.90;;;;;;4178835;28;20079;-78
2021/01/09 09:43:18;;;;;;;76.18;39.40;;;0.00;99.90;;;;;;4179422;28;20025;-78
2021/01/09 09:45:19;;;;;;;55.85;32.22;;;0.10;99.90;;;;;;4180051;28;20029;-79
2021/01/09 09:47:25;;;;;;;54.70;31.85;;;0.10;99.90;;;;;;4180633;28;20535;-79
2021/01/09 09:49:25;;;;;;;51.25;28.17;;;0.10;99.90;;;;;;4180055;28;20052;-79
2021/01/09 09:51:34;;;;;;;67.63;25.70;;;0.10;99.90;;;;;;4162355;28;20041;-79
2021/01/09 09:53:36;;;;;;;46.88;25.35;;;0.20;99.90;;;;;;4180580;28;20492;-77
2021/01/09 09:55:37;;;;;;;43.63;24.52;;;0.20;99.90;;;;;;4162691;28;20056;-77
2021/01/09 09:57:37;;;;;;;45.80;24.95;;;0.20;99.90;;;;;;4179522;28;20029;-78
2021/01/09 09:59:38;;;;;;;45.47;24.85;;;0.30;99.90;;;;;;4158306;28;20053;-77
2021/01/09 10:01:38;;;;;;;51.35;24.58;;;0.30;99.90;;;;;;4164826;28;20025;-79
2021/01/09 10:03:39;;;;;;;46.90;23.58;;;0.40;99.90;;;;;;4179718;28;20029;-77
2021/01/09 10:05:41;;;;;;;45.88;23.10;;;0.60;99.90;;;;;;4162410;28;20037;-76
2021/01/09 10:07:42;;;;;;;43.05;22.67;;;0.60;99.90;;;;;;4180083;28;20037;-77
2021/01/09 10:09:42;;;;;;;41.60;22.98;;;0.60;99.90;;;;;;4162010;28;20040;-77
2021/01/09 10:11:43;;;;;;;44.92;22.73;;;0.60;99.90;;;;;;4179083;28;20064;-77
2021/01/09 10:13:44;;;;;;;45.28;24.10;;;0.60;99.90;;;;;;4162339;28;20108;-77
2021/01/09 10:15:45;;;;;;;50.33;23.00;;;0.70;99.90;;;;;;4170093;28;20033;-77
2021/01/09 10:17:54;;;;;;;49.90;26.88;;;0.80;99.90;;;;;;4167944;28;20025;-78
2021/01/09 10:19:54;;;;;;;53.25;27.38;;;0.90;99.90;;;;;;4162263;28;20061;-79
2021/01/09 10:21:56;;;;;;;49.80;26.60;;;1.20;99.90;;;;;;4169802;28;20662;-77
2021/01/09 10:23:58;;;;;;;59.58;28.77;;;1.50;99.90;;;;;;4151431;28;20030;-78
2021/01/09 10:25:58;;;;;;;53.00;28.83;;;1.80;99.90;;;;;;4166543;28;20364;-78